Accueil
METAR-TAF:

METAR-TAF

Aéroports :

Poteau, Oklahoma, États-Unis

latitude: 35-01-18N, longitude: 094-37-17W, altitude: 138 m

Observation

Le bulletin a été fait il y a 8 minutes, à 23:35 UTC
Vent calme
Température 29°C
Humidité 45%
Pression 1010 hPa
Visibilité: 16.1 km
Nuages fragmentés à une hauteur de 11000 ft

METAR: KRKR 212335Z AUTO 00000KT 10SM BKN110 29/16 A2982 RMK AO2

Heure: 18:43 (23:43 UTC)


TAF: absent

Observations et prévisions météorologiques de plus de 4000 aéroports (messages METAR et TAF).

Les stations disponibles sont représentées par des disques jaunes et rouges sur la carte.

Passer la souris dessus pour voir le nom de la station.

Cliquer dessus pour voir les observations et prévisions météorologiques.

Pour changer de carte: cliquez sur les boutons verts avec une croix noire pour zoomer, sur le bouton vert avec un tiret pour effectuer un zoom arrière, ou sur les flèches vertes pour les cartes adjacentes.


METAR-TAF: